createdAt,value
2022-12-23T00:01:51.256Z,0.39
2022-12-23T00:04:18.285Z,0.40
2022-12-23T00:06:45.238Z,0.41
2022-12-23T00:09:12.202Z,0.42
2022-12-23T00:11:58.973Z,0.44
2022-12-23T00:14:46.465Z,0.45
2022-12-23T00:17:28.334Z,0.45
2022-12-23T00:19:55.360Z,0.45
2022-12-23T00:22:42.132Z,0.48
2022-12-23T00:25:09.381Z,0.48
2022-12-23T00:27:37.827Z,0.41
2022-12-23T00:30:07.253Z,0.45
2022-12-23T00:32:34.260Z,0.39
2022-12-23T00:35:01.069Z,0.38
2022-12-23T00:37:31.837Z,0.37
2022-12-23T00:40:17.100Z,0.36
2022-12-23T00:42:55.728Z,0.29
2022-12-23T00:45:22.747Z,0.33
2022-12-23T00:48:08.364Z,0.27
2022-12-23T00:50:39.581Z,0.27
2022-12-23T00:53:06.989Z,0.32
2022-12-23T00:55:33.838Z,0.31
2022-12-23T00:58:00.763Z,0.32
2022-12-23T01:00:46.702Z,0.27
2022-12-23T01:03:34.072Z,0.31
2022-12-23T01:06:02.602Z,0.31
2022-12-23T01:08:29.885Z,0.32
2022-12-23T01:10:56.824Z,0.36
2022-12-23T01:13:23.788Z,0.37
2022-12-23T01:15:50.589Z,0.43
2022-12-23T01:18:17.389Z,0.46
2022-12-23T01:20:44.226Z,0.46
2022-12-23T01:23:10.999Z,0.45
2022-12-23T01:25:37.848Z,0.40
2022-12-23T01:28:04.783Z,0.40
2022-12-23T01:30:31.571Z,0.41
2022-12-23T01:32:58.421Z,0.41
2022-12-23T01:35:25.252Z,0.38
2022-12-23T01:37:52.050Z,0.33
2022-12-23T01:40:18.955Z,0.32
2022-12-23T01:42:47.395Z,0.30
2022-12-23T01:45:20.581Z,0.38
2022-12-23T01:48:06.261Z,0.42
2022-12-23T01:50:43.124Z,0.45
2022-12-23T01:53:15.911Z,0.43
2022-12-23T01:55:54.583Z,0.40
2022-12-23T01:58:27.899Z,0.35
2022-12-23T02:01:15.885Z,0.30
2022-12-23T02:03:44.163Z,0.29
2022-12-23T02:06:42.918Z,0.33
2022-12-23T02:09:22.536Z,0.41
2022-12-23T02:12:10.408Z,0.47
2022-12-23T02:15:14.430Z,0.48
2022-12-23T02:17:56.150Z,0.52
2022-12-23T02:20:44.049Z,0.56
2022-12-23T02:23:35.731Z,0.60
2022-12-23T02:26:21.365Z,0.64
2022-12-23T02:29:32.742Z,0.69
2022-12-23T02:32:26.072Z,0.75
2022-12-23T02:35:34.764Z,0.80
2022-12-23T02:38:16.539Z,0.75
2022-12-23T02:41:04.892Z,0.80
2022-12-23T02:43:46.337Z,0.75
2022-12-23T02:46:39.463Z,0.72
2022-12-23T02:49:15.432Z,0.65
2022-12-23T02:51:46.700Z,0.69
2022-12-23T02:54:18.789Z,0.66
2022-12-23T02:56:50.228Z,0.62
2022-12-23T02:59:22.155Z,0.58
2022-12-23T04:43:06.698Z,0.11
2022-12-23T04:45:33.504Z,0.21
2022-12-23T04:48:00.382Z,0.27
2022-12-23T04:50:27.233Z,0.33
2022-12-23T04:52:54.100Z,0.42
2022-12-23T04:55:20.956Z,0.45
2022-12-23T04:57:47.877Z,0.54
2022-12-23T05:00:15.210Z,0.54
2022-12-23T05:02:42.117Z,0.63
2022-12-23T05:05:09.203Z,0.65
2022-12-23T07:26:23.383Z,0.81
2022-12-23T07:28:50.225Z,0.77
2022-12-23T07:31:17.209Z,0.86
2022-12-23T07:33:44.163Z,0.97
2022-12-23T07:36:11.067Z,1.13
2022-12-23T07:38:38.104Z,1.29
2022-12-23T07:41:05.077Z,1.58
2022-12-23T07:43:32.171Z,1.98
2022-12-23T07:46:00.684Z,2.20
2022-12-23T07:48:28.347Z,2.37
2022-12-23T07:51:01.139Z,3.03
2022-12-23T07:53:28.445Z,3.48
2022-12-23T07:55:56.770Z,3.74
2022-12-23T07:58:24.405Z,3.95
2022-12-23T08:00:51.283Z,4.53
2022-12-23T08:03:18.211Z,4.68
2022-12-23T08:05:45.265Z,4.85
2022-12-23T08:08:12.780Z,5.03
2022-12-23T08:10:46.185Z,5.28
2022-12-23T08:13:15.347Z,5.24
2022-12-23T08:15:42.140Z,5.32
2022-12-23T08:18:09.063Z,5.40
2022-12-23T08:20:36.061Z,5.49
2022-12-23T08:23:02.908Z,5.36
2022-12-23T08:25:29.874Z,5.26
2022-12-23T08:27:56.687Z,5.20
2022-12-23T08:30:23.573Z,5.33
2022-12-23T08:32:50.505Z,5.40
2022-12-23T08:35:17.473Z,5.38
2022-12-23T08:37:44.464Z,5.43
2022-12-23T08:40:12.219Z,5.46
2022-12-23T08:42:39.171Z,5.70
2022-12-23T08:45:06.388Z,5.77
2022-12-23T08:47:34.779Z,5.82
2022-12-23T08:50:01.681Z,5.69
2022-12-23T08:52:28.624Z,5.72
2022-12-23T08:54:55.492Z,5.73
2022-12-23T08:57:22.287Z,5.85
2022-12-23T08:59:49.207Z,5.81
2022-12-23T09:02:16.561Z,5.77
2022-12-23T09:04:43.577Z,5.96
2022-12-23T09:07:10.399Z,6.29
2022-12-23T09:09:38.251Z,6.56
2022-12-23T09:12:05.330Z,6.67
2022-12-23T09:14:32.167Z,6.61
2022-12-23T09:16:59.117Z,6.43
2022-12-23T09:19:26.075Z,6.51
2022-12-23T09:21:52.946Z,6.46
2022-12-23T09:24:19.827Z,6.26
2022-12-23T09:26:46.688Z,6.10
2022-12-23T09:29:13.615Z,5.93
2022-12-23T09:31:40.620Z,5.84
2022-12-23T09:34:07.524Z,5.79
2022-12-23T09:36:34.478Z,5.76
2022-12-23T09:39:01.429Z,5.74
2022-12-23T09:41:39.203Z,5.84
2022-12-23T09:44:26.737Z,5.91
2022-12-23T09:47:04.753Z,5.98
2022-12-23T09:49:32.811Z,6.00
2022-12-23T09:52:05.322Z,6.13
2022-12-23T09:54:47.706Z,6.26
2022-12-23T09:57:21.444Z,6.42
2022-12-23T10:00:23.965Z,6.46
2022-12-23T10:03:09.577Z,6.31
2022-12-23T10:05:40.606Z,6.29
2022-12-23T10:08:16.696Z,6.35
2022-12-23T10:10:48.674Z,6.31
2022-12-23T10:13:25.227Z,6.45
2022-12-23T10:15:53.206Z,6.57
2022-12-23T10:18:41.552Z,6.58
2022-12-23T10:21:17.903Z,6.61
2022-12-23T10:23:50.471Z,6.62
2022-12-23T10:26:26.184Z,6.65
2022-12-23T10:29:08.501Z,6.70
2022-12-23T10:31:56.870Z,6.71
2022-12-23T10:34:58.953Z,6.72
2022-12-23T10:37:41.934Z,6.82
2022-12-23T10:40:17.956Z,7.03
2022-12-23T10:43:07.846Z,7.16
2022-12-23T10:45:44.048Z,7.33
2022-12-23T10:48:33.078Z,7.59
2022-12-23T10:51:17.586Z,7.94
2022-12-23T10:53:59.355Z,8.35
2022-12-23T10:56:28.347Z,8.70
2022-12-23T10:58:57.999Z,8.72
2022-12-23T11:01:27.432Z,8.83
2022-12-23T11:04:00.702Z,8.78
2022-12-23T11:06:33.253Z,8.80
2022-12-23T11:09:05.415Z,8.81
2022-12-23T11:12:00.277Z,8.83
2022-12-23T11:14:51.536Z,8.81
2022-12-23T11:17:22.998Z,8.79
2022-12-23T11:20:12.911Z,8.65
2022-12-23T11:23:07.180Z,8.54
2022-12-23T11:25:42.888Z,8.52
2022-12-23T11:28:12.570Z,8.41
2022-12-23T11:31:01.232Z,8.18
2022-12-23T11:33:34.449Z,8.04
2022-12-23T11:36:02.975Z,7.83
2022-12-23T11:38:30.168Z,7.73
2022-12-23T11:40:57.779Z,7.56
2022-12-23T11:43:26.734Z,7.54
2022-12-23T11:46:17.723Z,7.47
2022-12-23T11:48:51.319Z,7.40
2022-12-23T11:51:25.841Z,7.17
2022-12-23T11:54:00.051Z,7.43
2022-12-23T11:56:28.640Z,7.43
2022-12-23T11:59:05.422Z,7.49
2022-12-23T12:01:32.807Z,7.62
2022-12-23T12:04:20.834Z,7.73
2022-12-23T12:06:56.350Z,7.82
2022-12-23T12:09:25.167Z,7.99
2022-12-23T12:12:03.828Z,8.05
2022-12-23T12:14:48.577Z,8.21
2022-12-23T12:17:33.489Z,8.32
2022-12-23T12:20:39.244Z,8.47
2022-12-23T12:23:21.539Z,8.51
2022-12-23T12:26:03.010Z,8.63
2022-12-23T12:28:39.028Z,8.70
2022-12-23T12:31:15.572Z,8.77
2022-12-23T12:33:51.179Z,8.79
2022-12-23T12:36:32.971Z,8.85
2022-12-23T12:39:00.443Z,8.88
2022-12-23T12:41:48.508Z,8.89
2022-12-23T12:44:43.314Z,8.95
2022-12-23T12:47:44.813Z,9.00
2022-12-23T12:50:11.687Z,9.07
2022-12-23T12:52:42.082Z,9.17
2022-12-23T12:55:22.998Z,9.23
2022-12-23T12:57:49.892Z,9.32
2022-12-23T13:00:19.508Z,9.64
2022-12-23T13:03:01.602Z,10.21
2022-12-23T13:05:56.791Z,10.89
2022-12-23T13:08:51.339Z,11.60
2022-12-23T13:11:28.981Z,12.08
2022-12-23T13:14:12.727Z,12.61
2022-12-23T13:16:52.772Z,13.02
2022-12-23T13:19:42.543Z,13.26
2022-12-23T13:22:15.425Z,13.51
2022-12-23T13:24:55.178Z,13.84
2022-12-23T13:27:34.581Z,14.25
2022-12-23T13:30:15.011Z,14.42
2022-12-23T13:32:48.100Z,14.86
2022-12-23T13:36:11.331Z,15.23
2022-12-23T13:38:56.813Z,15.56
2022-12-23T13:41:36.149Z,15.62
2022-12-23T13:44:06.448Z,15.14
2022-12-23T13:46:54.899Z,14.88
2022-12-23T13:49:30.560Z,15.00
2022-12-23T13:52:22.141Z,15.21
2022-12-23T13:55:22.932Z,15.05
2022-12-23T13:58:20.458Z,14.44
2022-12-23T14:01:08.431Z,13.77
2022-12-23T14:03:37.531Z,13.25
2022-12-23T14:06:26.254Z,12.78
2022-12-23T14:08:55.011Z,12.27
2022-12-23T14:11:30.833Z,11.80
2022-12-23T14:14:04.008Z,11.63
2022-12-23T14:16:49.279Z,11.27
2022-12-23T14:19:18.944Z,11.04
2022-12-23T14:22:11.016Z,10.91
2022-12-23T14:24:50.049Z,10.79
2022-12-23T14:27:16.853Z,10.57
2022-12-23T14:30:11.515Z,10.55
2022-12-23T14:32:52.042Z,10.52
2022-12-23T14:35:27.206Z,10.46
2022-12-23T14:38:31.314Z,10.34
2022-12-23T14:40:59.730Z,10.27
2022-12-23T14:43:45.915Z,10.25
2022-12-23T14:46:34.849Z,10.21
2022-12-23T14:49:29.657Z,10.17
2022-12-23T14:51:52.119Z,10.13
2022-12-23T14:54:38.761Z,10.06
2022-12-23T14:57:15.963Z,9.99
2022-12-23T14:59:56.287Z,9.89
2022-12-23T15:02:34.025Z,9.76
2022-12-23T15:05:01.921Z,9.70
2022-12-23T15:07:39.420Z,9.64
2022-12-23T15:10:17.916Z,9.57
2022-12-23T15:12:49.384Z,9.55
2022-12-23T15:15:20.663Z,9.48
2022-12-23T15:17:48.851Z,9.31
2022-12-23T15:20:26.701Z,9.28
2022-12-23T15:22:53.589Z,9.20
2022-12-23T15:25:33.689Z,9.09
2022-12-23T15:28:03.128Z,9.07
2022-12-23T15:30:34.144Z,9.01
2022-12-23T15:33:16.127Z,8.96
2022-12-23T15:35:52.744Z,8.86
2022-12-23T15:38:22.455Z,8.80
2022-12-23T15:41:02.198Z,8.79
2022-12-23T15:43:29.874Z,8.69
2022-12-23T15:46:09.059Z,8.71
2022-12-23T15:48:38.028Z,8.72
2022-12-23T15:51:14.308Z,8.70
2022-12-23T15:53:45.496Z,8.72
2022-12-23T15:56:29.841Z,8.77
2022-12-23T15:58:57.303Z,8.78
2022-12-23T16:01:25.466Z,8.75
2022-12-23T16:03:57.110Z,8.85
2022-12-23T16:06:33.094Z,8.89
2022-12-23T16:09:06.773Z,8.86
2022-12-23T16:11:42.326Z,8.89
2022-12-23T16:14:33.337Z,8.86
2022-12-23T16:17:13.677Z,8.86
2022-12-23T16:19:53.992Z,8.85
2022-12-23T16:22:20.855Z,8.83
2022-12-23T16:24:52.595Z,8.79
2022-12-23T16:27:32.513Z,8.71
2022-12-23T16:30:02.795Z,8.78
2022-12-23T16:32:29.752Z,8.68
2022-12-23T16:34:56.686Z,8.68
2022-12-23T16:37:24.791Z,8.67
2022-12-23T16:39:51.778Z,8.60
2022-12-23T16:42:19.226Z,8.59
2022-12-23T16:44:46.089Z,8.56
2022-12-23T16:47:17.589Z,8.60
2022-12-23T16:49:45.327Z,8.60
2022-12-23T16:52:14.416Z,8.57
2022-12-23T16:54:42.717Z,8.56
2022-12-23T16:57:10.662Z,8.46
2022-12-23T16:59:41.197Z,8.46
2022-12-23T17:02:20.799Z,8.39
2022-12-23T17:04:47.681Z,8.36
2022-12-23T17:07:14.568Z,8.31
2022-12-23T17:09:41.489Z,8.30
2022-12-23T17:12:10.170Z,8.26
2022-12-23T17:14:37.094Z,8.20
2022-12-23T17:17:13.364Z,8.12
2022-12-23T17:19:40.387Z,7.99
2022-12-23T17:22:12.518Z,7.84
2022-12-23T17:24:39.605Z,7.62
2022-12-23T17:27:15.182Z,7.34
2022-12-23T17:29:42.336Z,7.02
2022-12-23T17:32:18.229Z,6.92
2022-12-23T17:34:45.453Z,6.77
2022-12-23T17:37:14.596Z,6.62
2022-12-23T17:39:43.079Z,6.46
2022-12-23T17:42:28.228Z,6.37
2022-12-23T17:44:55.090Z,6.18
2022-12-23T17:47:22.799Z,6.20
2022-12-23T17:49:49.895Z,6.15
2022-12-23T17:52:19.912Z,6.09
2022-12-23T17:54:48.927Z,6.01
2022-12-23T17:57:25.358Z,5.98
2022-12-23T17:59:53.903Z,5.94
2022-12-23T18:02:32.435Z,5.80
2022-12-23T18:04:59.975Z,5.77
2022-12-23T18:07:26.925Z,5.71
2022-12-23T18:09:54.207Z,5.66
2022-12-23T18:12:39.868Z,5.55
2022-12-23T18:15:18.614Z,5.56
2022-12-23T18:17:45.517Z,5.48
2022-12-23T18:20:18.307Z,5.45
2022-12-23T18:22:50.660Z,5.33
2022-12-23T18:25:27.782Z,5.31
2022-12-23T18:27:54.882Z,5.24
2022-12-23T18:30:22.566Z,5.25
2022-12-23T18:32:49.457Z,5.09
2022-12-23T18:35:30.859Z,4.98
2022-12-23T18:37:59.382Z,4.93
2022-12-23T18:40:32.571Z,4.88
2022-12-23T18:43:00.344Z,4.77
2022-12-23T18:45:38.669Z,4.71
2022-12-23T18:48:07.753Z,4.64
2022-12-23T18:50:37.082Z,4.66
2022-12-23T18:53:05.009Z,4.60
2022-12-23T18:55:32.102Z,4.57
2022-12-23T18:58:00.752Z,4.55
2022-12-23T19:00:30.762Z,4.49
2022-12-23T19:02:58.014Z,4.45
2022-12-23T19:05:28.166Z,4.37
2022-12-23T19:07:57.732Z,4.41
2022-12-23T19:10:29.936Z,4.36
2022-12-23T19:12:57.089Z,4.33
2022-12-23T19:15:24.410Z,4.26
2022-12-23T19:17:51.272Z,4.23
2022-12-23T19:20:20.623Z,4.18
2022-12-23T19:22:48.246Z,4.18
2022-12-23T19:25:18.348Z,4.14
2022-12-23T19:27:45.930Z,4.09
2022-12-23T19:30:16.640Z,4.07
2022-12-23T19:32:44.081Z,4.01
2022-12-23T19:35:15.215Z,3.99
2022-12-23T19:37:42.868Z,4.00
2022-12-23T19:40:10.372Z,3.91
2022-12-23T19:42:39.048Z,3.81
2022-12-23T19:45:08.683Z,3.81
2022-12-23T19:47:36.345Z,3.68
2022-12-23T19:50:04.400Z,3.60
2022-12-23T19:52:34.684Z,3.59
2022-12-23T19:55:01.552Z,3.51
2022-12-23T19:57:28.492Z,3.46
2022-12-23T19:59:55.393Z,3.41
2022-12-23T20:02:23.652Z,3.35
2022-12-23T20:04:50.674Z,3.29
2022-12-23T20:07:17.614Z,3.26
2022-12-23T20:09:44.544Z,3.25
2022-12-23T20:12:11.595Z,3.22
2022-12-23T20:14:38.519Z,3.22
2022-12-23T20:17:05.439Z,3.18
2022-12-23T20:19:32.785Z,3.10
2022-12-23T20:22:00.103Z,3.09
2022-12-23T20:24:26.996Z,3.04
2022-12-23T20:26:53.891Z,3.02
2022-12-23T20:29:20.874Z,2.90
2022-12-23T20:31:47.755Z,2.87
2022-12-23T20:34:16.694Z,2.84
2022-12-23T20:36:43.819Z,2.79
2022-12-23T20:39:10.690Z,2.73
2022-12-23T20:41:37.525Z,2.72
2022-12-23T20:46:51.717Z,2.61
2022-12-23T20:49:18.720Z,2.60
2022-12-23T20:51:45.600Z,2.54
2022-12-23T20:54:12.928Z,2.43
2022-12-23T20:56:39.801Z,2.35
2022-12-23T20:59:06.788Z,2.28
2022-12-23T21:01:36.437Z,2.30
2022-12-23T21:04:09.945Z,2.35
2022-12-23T21:06:37.136Z,2.35
2022-12-23T21:09:05.965Z,2.32
2022-12-23T21:11:36.335Z,2.24
2022-12-23T21:14:06.831Z,2.19
2022-12-23T21:16:35.492Z,2.13
2022-12-23T21:19:03.151Z,2.13
2022-12-23T21:21:32.012Z,2.05
2022-12-23T21:24:02.390Z,2.08
2022-12-23T21:26:34.668Z,2.03
2022-12-23T21:29:16.210Z,1.94
2022-12-23T21:31:49.142Z,1.92
2022-12-23T21:34:25.835Z,1.93
2022-12-23T21:37:06.825Z,1.82
2022-12-23T21:39:54.614Z,1.86
2022-12-23T21:42:26.564Z,1.76
2022-12-23T21:44:53.492Z,1.81
2022-12-23T21:47:20.406Z,1.79
2022-12-23T21:49:47.406Z,1.81
2022-12-23T21:52:14.624Z,1.79
2022-12-23T21:54:41.516Z,1.81
2022-12-23T21:57:08.416Z,1.76
2022-12-23T21:59:35.759Z,1.78
2022-12-23T22:02:02.768Z,1.73
2022-12-23T22:04:29.633Z,1.74
2022-12-23T22:06:56.582Z,1.77
2022-12-23T22:09:24.688Z,1.72
2022-12-23T22:11:52.712Z,1.77
2022-12-23T22:14:19.934Z,1.80
2022-12-23T22:16:47.211Z,1.79
2022-12-23T22:19:14.264Z,1.80
2022-12-23T22:21:42.867Z,1.77
2022-12-23T22:24:10.229Z,1.72
2022-12-23T22:26:37.500Z,1.71
2022-12-23T22:29:06.224Z,1.69
2022-12-23T22:31:38.372Z,1.69
2022-12-23T22:34:06.302Z,1.67
2022-12-23T22:36:34.294Z,1.62
2022-12-23T22:39:02.243Z,1.63
2022-12-23T22:41:30.091Z,1.65
2022-12-23T22:43:57.281Z,1.65
2022-12-23T22:46:24.940Z,1.60
2022-12-23T22:48:52.558Z,1.52
2022-12-23T22:51:23.607Z,1.51
2022-12-23T22:53:50.562Z,1.50
2022-12-23T22:56:18.940Z,1.41
2022-12-23T22:58:45.853Z,1.45
